Αρχική σελίδα
METAR-TAF:

METAR-TAF

Αεροδρόμια :

Κάνσας Σίτυ, Μισούρι, Ηνωμένες Πολιτείες Αμερικής

γεωγραφικό πλάτος: 39-17-50N, γεωγραφικό μήκος: 094-43-50W, υψόμετρο: 312 μ

Παρών καιρός

Η αναφορά έγινε 51 λεπτά πριν, στις 16:53 UTC
Άνεμος 4 kt από Δ
Θερμοκρασία 10°C
Υγρασία 57%
Πίεση 1020 hPa
Ορατότητα: 16.1 χλμ
Καθαρός ουρανός

METAR: KMCI 161653Z 28004KT 10SM CLR 10/02 A3012 RMK AO2 SLP204 T01000022

Χρόνος: 11:44 (17:44 UTC)

Πρόγνωση Καιρού

Η αναφορά έγινε 18 λεπτά πριν, στις 17:26 UTC
Η πρόγνωση ισχύει από τις 16 στις 18 UTC έως τις 17 στις 18 UTC
Άνεμος 7 kt από Ν
Ορατότητα: 10 χλμ
Καθαρός ουρανός
Από 17 στις 1200 UTC
Άνεμος 9 kt από Β
Ορατότητα: 10 χλμ
Αρκετά νέφη σε ύψος 4000 πόδια
Από 17 στις 1500 UTC
Άνεμος 15 kt από Β/BA
Ορατότητα: 10 χλμ
Νεφοσκεπής σε ύψος 1500 πόδια

TAF: KMCI 161726Z 1618/1718 17007KT P6SM SKC FM171200 36009KT P6SM BKN040 FM171500 03015KT P6SM OVC015

Μετεωρολογικές αναφορές και προγνώσεις για περισσότερα από 4000 αεροδρόμια (δελτία METAR και TAF).

Οι διαθέσιμοι σταθμοί απεικονίζονται στο χάρτη με κίτρινες και κόκκινες κουκκίδες.

Μετακινήστε το ποντίκι πάνω από τις κουκκίδες για να δείτε το όνομα του σταθμού.

Στη συνέχεια, κάντε κλικ για να δείτε τις μετεωρολογικές αναφορές και τις προγνώσεις καιρού.

Για να αλλάξετε το χάρτη: κάντε κλικ στα πράσινα κουμπιά με τον μαύρο σταυρό για να ζουμάρετε, στο πράσινο κουμπί με την παύλα για να αφαιρέσετε το ζουμ ή στα πράσινα βέλη για να αντιπαραβάλλετε χάρτες.


METAR-TAF: